sensor_id;sensor_type;location;lat;lon;timestamp;P1;durP1;ratioP1;P2;durP2;ratioP2
74753;SDS011;63271;53.340;-6.260;2023-09-19T06:01:10;0.52;;;0.38;;
74753;SDS011;63271;53.340;-6.260;2023-09-19T06:03:35;1.13;;;0.40;;
74753;SDS011;63271;53.340;-6.260;2023-09-19T06:06:01;4.28;;;0.47;;
74753;SDS011;63271;53.340;-6.260;2023-09-19T06:08:28;1.45;;;0.22;;
74753;SDS011;63271;53.340;-6.260;2023-09-19T06:10:53;0.10;;;0.10;;
74753;SDS011;63271;53.340;-6.260;2023-09-19T06:13:19;0.68;;;0.28;;
74753;SDS011;63271;53.340;-6.260;2023-09-19T06:15:45;1.05;;;0.35;;
74753;SDS011;63271;53.340;-6.260;2023-09-19T06:18:12;0.70;;;0.30;;
74753;SDS011;63271;53.340;-6.260;2023-09-19T06:20:44;0.75;;;0.22;;
74753;SDS011;63271;53.340;-6.260;2023-09-19T06:23:13;2.70;;;0.22;;
74753;SDS011;63271;53.340;-6.260;2023-09-19T06:25:42;0.35;;;0.22;;
74753;SDS011;63271;53.340;-6.260;2023-09-19T06:28:08;0.82;;;0.15;;
74753;SDS011;63271;53.340;-6.260;2023-09-19T06:30:37;0.20;;;0.20;;
74753;SDS011;63271;53.340;-6.260;2023-09-19T06:33:06;0.20;;;0.20;;
74753;SDS011;63271;53.340;-6.260;2023-09-19T06:35:34;0.73;;;0.28;;
74753;SDS011;63271;53.340;-6.260;2023-09-19T06:38:03;0.55;;;0.32;;
74753;SDS011;63271;53.340;-6.260;2023-09-19T06:40:33;1.05;;;0.20;;
74753;SDS011;63271;53.340;-6.260;2023-09-19T06:42:59;1.42;;;0.10;;
74753;SDS011;63271;53.340;-6.260;2023-09-19T06:45:27;0.85;;;0.30;;
74753;SDS011;63271;53.340;-6.260;2023-09-19T06:47:55;0.47;;;0.30;;
74753;SDS011;63271;53.340;-6.260;2023-09-19T06:50:23;0.10;;;0.00;;
74753;SDS011;63271;53.340;-6.260;2023-09-19T06:52:52;5.00;;;0.10;;
74753;SDS011;63271;53.340;-6.260;2023-09-19T06:55:19;0.13;;;0.13;;
74753;SDS011;63271;53.340;-6.260;2023-09-19T06:57:48;0.10;;;0.10;;
74753;SDS011;63271;53.340;-6.260;2023-09-19T07:00:14;2.10;;;0.20;;
74753;SDS011;63271;53.340;-6.260;2023-09-19T07:02:59;0.82;;;0.22;;
74753;SDS011;63271;53.340;-6.260;2023-09-19T07:05:34;0.45;;;0.25;;
74753;SDS011;63271;53.340;-6.260;2023-09-19T07:08:02;0.15;;;0.10;;
74753;SDS011;63271;53.340;-6.260;2023-09-19T07:10:28;1.48;;;0.70;;
74753;SDS011;63271;53.340;-6.260;2023-09-19T07:13:04;0.60;;;0.60;;
74753;SDS011;63271;53.340;-6.260;2023-09-19T07:15:34;2.22;;;0.57;;
74753;SDS011;63271;53.340;-6.260;2023-09-19T07:18:04;0.93;;;0.20;;
74753;SDS011;63271;53.340;-6.260;2023-09-19T07:20:31;0.40;;;0.40;;
74753;SDS011;63271;53.340;-6.260;2023-09-19T07:22:59;0.30;;;0.30;;
74753;SDS011;63271;53.340;-6.260;2023-09-19T07:25:27;1.80;;;0.52;;
74753;SDS011;63271;53.340;-6.260;2023-09-19T07:27:57;0.85;;;0.30;;
74753;SDS011;63271;53.340;-6.260;2023-09-19T07:30:25;1.20;;;0.35;;
74753;SDS011;63271;53.340;-6.260;2023-09-19T07:32:51;0.88;;;0.30;;
74753;SDS011;63271;53.340;-6.260;2023-09-19T07:35:17;3.38;;;0.30;;
74753;SDS011;63271;53.340;-6.260;2023-09-19T07:37:45;0.82;;;0.35;;
74753;SDS011;63271;53.340;-6.260;2023-09-19T07:40:16;1.70;;;0.50;;
74753;SDS011;63271;53.340;-6.260;2023-09-19T07:42:42;1.05;;;0.60;;
74753;SDS011;63271;53.340;-6.260;2023-09-19T07:45:12;2.13;;;0.60;;
74753;SDS011;63271;53.340;-6.260;2023-09-19T07:47:48;2.08;;;0.32;;
74753;SDS011;63271;53.340;-6.260;2023-09-19T07:50:15;0.63;;;0.43;;
74753;SDS011;63271;53.340;-6.260;2023-09-19T07:52:41;3.13;;;0.40;;
74753;SDS011;63271;53.340;-6.260;2023-09-19T07:55:08;0.90;;;0.35;;
74753;SDS011;63271;53.340;-6.260;2023-09-19T07:57:34;0.50;;;0.30;;
74753;SDS011;63271;53.340;-6.260;2023-09-19T08:00:03;1.38;;;0.73;;
74753;SDS011;63271;53.340;-6.260;2023-09-19T08:02:33;2.58;;;0.68;;
74753;SDS011;63271;53.340;-6.260;2023-09-19T08:04:59;3.17;;;0.50;;
74753;SDS011;63271;53.340;-6.260;2023-09-19T08:07:25;3.33;;;0.22;;
74753;SDS011;63271;53.340;-6.260;2023-09-19T08:09:51;0.68;;;0.43;;
74753;SDS011;63271;53.340;-6.260;2023-09-19T08:12:19;0.35;;;0.20;;
74753;SDS011;63271;53.340;-6.260;2023-09-19T08:14:49;0.65;;;0.40;;
74753;SDS011;63271;53.340;-6.260;2023-09-19T08:17:15;0.30;;;0.22;;
74753;SDS011;63271;53.340;-6.260;2023-09-19T08:19:45;1.85;;;0.30;;
74753;SDS011;63271;53.340;-6.260;2023-09-19T08:22:13;0.35;;;0.32;;
74753;SDS011;63271;53.340;-6.260;2023-09-19T08:24:42;0.40;;;0.25;;
74753;SDS011;63271;53.340;-6.260;2023-09-19T08:27:08;0.95;;;0.40;;
74753;SDS011;63271;53.340;-6.260;2023-09-19T08:29:35;0.13;;;0.08;;
74753;SDS011;63271;53.340;-6.260;2023-09-19T08:32:00;0.35;;;0.20;;
74753;SDS011;63271;53.340;-6.260;2023-09-19T08:34:26;1.25;;;0.22;;
74753;SDS011;63271;53.340;-6.260;2023-09-19T08:36:52;3.67;;;0.40;;
74753;SDS011;63271;53.340;-6.260;2023-09-19T08:39:22;1.65;;;0.50;;
74753;SDS011;63271;53.340;-6.260;2023-09-19T08:41:48;0.38;;;0.30;;
74753;SDS011;63271;53.340;-6.260;2023-09-19T08:44:14;3.03;;;0.47;;
74753;SDS011;63271;53.340;-6.260;2023-09-19T08:46:43;1.60;;;0.30;;
74753;SDS011;63271;53.340;-6.260;2023-09-19T08:49:13;4.18;;;0.45;;
74753;SDS011;63271;53.340;-6.260;2023-09-19T08:52:37;0.90;;;0.30;;
74753;SDS011;63271;53.340;-6.260;2023-09-19T08:55:01;0.40;;;0.32;;
74753;SDS011;63271;53.340;-6.260;2023-09-19T08:57:32;2.88;;;0.50;;
74753;SDS011;63271;53.340;-6.260;2023-09-19T09:00:00;1.95;;;0.45;;
74753;SDS011;63271;53.340;-6.260;2023-09-19T09:02:29;1.75;;;0.30;;
74753;SDS011;63271;53.340;-6.260;2023-09-19T09:04:57;3.60;;;0.60;;
74753;SDS011;63271;53.340;-6.260;2023-09-19T09:07:23;1.85;;;0.57;;
74753;SDS011;63271;53.340;-6.260;2023-09-19T09:09:53;3.40;;;0.43;;
74753;SDS011;63271;53.340;-6.260;2023-09-19T09:12:19;1.00;;;0.32;;
74753;SDS011;63271;53.340;-6.260;2023-09-19T09:14:45;1.50;;;0.20;;
74753;SDS011;63271;53.340;-6.260;2023-09-19T09:17:15;1.20;;;0.20;;
74753;SDS011;63271;53.340;-6.260;2023-09-19T09:19:45;1.40;;;0.20;;
74753;SDS011;63271;53.340;-6.260;2023-09-19T09:22:14;3.50;;;0.50;;
74753;SDS011;63271;53.340;-6.260;2023-09-19T09:24:55;1.08;;;0.40;;
74753;SDS011;63271;53.340;-6.260;2023-09-19T09:27:26;1.65;;;0.60;;
74753;SDS011;63271;53.340;-6.260;2023-09-19T09:29:54;2.17;;;0.32;;
74753;SDS011;63271;53.340;-6.260;2023-09-19T09:34:52;1.88;;;0.30;;
74753;SDS011;63271;53.340;-6.260;2023-09-19T09:37:19;0.35;;;0.20;;
74753;SDS011;63271;53.340;-6.260;2023-09-19T09:39:51;2.65;;;0.30;;
74753;SDS011;63271;53.340;-6.260;2023-09-19T09:42:30;1.65;;;0.68;;
74753;SDS011;63271;53.340;-6.260;2023-09-19T09:45:19;1.30;;;0.30;;
74753;SDS011;63271;53.340;-6.260;2023-09-19T09:48:00;4.90;;;0.20;;
74753;SDS011;63271;53.340;-6.260;2023-09-19T09:50:39;0.43;;;0.30;;
74753;SDS011;63271;53.340;-6.260;2023-09-19T09:56:01;0.57;;;0.38;;
74753;SDS011;63271;53.340;-6.260;2023-09-19T09:58:33;0.55;;;0.10;;
74753;SDS011;63271;53.340;-6.260;2023-09-19T10:01:03;0.25;;;0.20;;
74753;SDS011;63271;53.340;-6.260;2023-09-19T10:06:12;2.72;;;0.40;;
74753;SDS011;63271;53.340;-6.260;2023-09-19T10:11:35;1.40;;;0.65;;
74753;SDS011;63271;53.340;-6.260;2023-09-19T10:14:05;3.67;;;1.02;;
74753;SDS011;63271;53.340;-6.260;2023-09-19T10:16:31;3.40;;;0.73;;
74753;SDS011;63271;53.340;-6.260;2023-09-19T10:18:58;1.90;;;0.60;;
74753;SDS011;63271;53.340;-6.260;2023-09-19T10:21:28;1.20;;;0.47;;
74753;SDS011;63271;53.340;-6.260;2023-09-19T10:23:56;2.63;;;0.60;;
74753;SDS011;63271;53.340;-6.260;2023-09-19T10:26:28;0.57;;;0.28;;
74753;SDS011;63271;53.340;-6.260;2023-09-19T10:29:00;0.82;;;0.30;;
74753;SDS011;63271;53.340;-6.260;2023-09-19T10:31:30;0.38;;;0.30;;
74753;SDS011;63271;53.340;-6.260;2023-09-19T10:34:02;0.47;;;0.20;;
74753;SDS011;63271;53.340;-6.260;2023-09-19T10:36:32;1.02;;;0.20;;
74753;SDS011;63271;53.340;-6.260;2023-09-19T10:39:03;0.43;;;0.10;;
74753;SDS011;63271;53.340;-6.260;2023-09-19T10:41:32;2.35;;;0.60;;
74753;SDS011;63271;53.340;-6.260;2023-09-19T10:44:03;3.55;;;0.47;;
74753;SDS011;63271;53.340;-6.260;2023-09-19T10:46:34;1.67;;;0.60;;
74753;SDS011;63271;53.340;-6.260;2023-09-19T10:49:03;1.50;;;0.50;;
74753;SDS011;63271;53.340;-6.260;2023-09-19T10:51:39;1.35;;;0.30;;
74753;SDS011;63271;53.340;-6.260;2023-09-19T10:54:08;0.85;;;0.52;;
74753;SDS011;63271;53.340;-6.260;2023-09-19T10:56:40;0.40;;;0.40;;
74753;SDS011;63271;53.340;-6.260;2023-09-19T10:59:12;1.45;;;0.32;;
74753;SDS011;63271;53.340;-6.260;2023-09-19T11:04:22;0.85;;;0.55;;
74753;SDS011;63271;53.340;-6.260;2023-09-19T11:07:08;0.50;;;0.30;;
74753;SDS011;63271;53.340;-6.260;2023-09-19T11:09:53;1.60;;;0.40;;
74753;SDS011;63271;53.340;-6.260;2023-09-19T11:15:11;0.63;;;0.30;;
74753;SDS011;63271;53.340;-6.260;2023-09-19T11:26:49;5.78;;;0.70;;
74753;SDS011;63271;53.340;-6.260;2023-09-19T11:29:24;1.33;;;0.40;;
74753;SDS011;63271;53.340;-6.260;2023-09-19T11:31:56;2.38;;;0.80;;
74753;SDS011;63271;53.340;-6.260;2023-09-19T11:40:25;1.58;;;0.70;;
74753;SDS011;63271;53.340;-6.260;2023-09-19T11:42:47;0.70;;;0.70;;
74753;SDS011;63271;53.340;-6.260;2023-09-19T11:48:13;6.25;;;4.13;;
74753;SDS011;63271;53.340;-6.260;2023-09-19T11:50:42;1.38;;;0.63;;
74753;SDS011;63271;53.340;-6.260;2023-09-19T11:53:12;1.88;;;1.10;;
74753;SDS011;63271;53.340;-6.260;2023-09-19T11:55:41;3.47;;;0.75;;
74753;SDS011;63271;53.340;-6.260;2023-09-19T11:58:09;3.03;;;0.90;;
74753;SDS011;63271;53.340;-6.260;2023-09-19T12:00:37;4.65;;;0.90;;
74753;SDS011;63271;53.340;-6.260;2023-09-19T12:03:08;2.80;;;0.40;;
74753;SDS011;63271;53.340;-6.260;2023-09-19T12:05:36;3.75;;;0.55;;
74753;SDS011;63271;53.340;-6.260;2023-09-19T12:08:05;0.93;;;0.45;;
74753;SDS011;63271;53.340;-6.260;2023-09-19T12:10:44;0.40;;;0.30;;
74753;SDS011;63271;53.340;-6.260;2023-09-19T12:13:20;1.02;;;0.40;;
74753;SDS011;63271;53.340;-6.260;2023-09-19T12:15:46;1.70;;;0.40;;
74753;SDS011;63271;53.340;-6.260;2023-09-19T12:18:31;0.90;;;0.40;;
74753;SDS011;63271;53.340;-6.260;2023-09-19T12:20:58;2.20;;;0.73;;
74753;SDS011;63271;53.340;-6.260;2023-09-19T12:23:25;3.15;;;0.80;;
74753;SDS011;63271;53.340;-6.260;2023-09-19T12:25:51;3.03;;;0.57;;
74753;SDS011;63271;53.340;-6.260;2023-09-19T12:28:18;2.50;;;0.57;;
74753;SDS011;63271;53.340;-6.260;2023-09-19T12:30:46;2.00;;;0.60;;
74753;SDS011;63271;53.340;-6.260;2023-09-19T12:33:18;1.95;;;0.57;;
74753;SDS011;63271;53.340;-6.260;2023-09-19T12:35:51;0.50;;;0.50;;
74753;SDS011;63271;53.340;-6.260;2023-09-19T12:38:27;1.88;;;0.40;;
74753;SDS011;63271;53.340;-6.260;2023-09-19T12:41:01;1.67;;;0.50;;
74753;SDS011;63271;53.340;-6.260;2023-09-19T12:43:28;0.85;;;0.60;;
74753;SDS011;63271;53.340;-6.260;2023-09-19T12:45:55;2.20;;;0.70;;
74753;SDS011;63271;53.340;-6.260;2023-09-19T12:48:25;1.25;;;0.60;;
74753;SDS011;63271;53.340;-6.260;2023-09-19T12:51:04;1.08;;;0.52;;
74753;SDS011;63271;53.340;-6.260;2023-09-19T12:53:37;1.05;;;0.40;;
74753;SDS011;63271;53.340;-6.260;2023-09-19T12:56:10;2.00;;;0.80;;
74753;SDS011;63271;53.340;-6.260;2023-09-19T12:58:50;3.13;;;1.13;;
74753;SDS011;63271;53.340;-6.260;2023-09-19T13:01:20;1.98;;;0.73;;
74753;SDS011;63271;53.340;-6.260;2023-09-19T13:03:50;2.25;;;0.50;;
74753;SDS011;63271;53.340;-6.260;2023-09-19T13:06:46;2.50;;;0.60;;
74753;SDS011;63271;53.340;-6.260;2023-09-19T13:09:13;2.50;;;0.90;;
74753;SDS011;63271;53.340;-6.260;2023-09-19T13:11:40;1.30;;;0.60;;
74753;SDS011;63271;53.340;-6.260;2023-09-19T13:14:24;2.95;;;0.98;;
74753;SDS011;63271;53.340;-6.260;2023-09-19T13:17:05;3.70;;;0.80;;
74753;SDS011;63271;53.340;-6.260;2023-09-19T13:19:49;1.75;;;0.68;;
74753;SDS011;63271;53.340;-6.260;2023-09-19T13:25:17;4.93;;;0.80;;
74753;SDS011;63271;53.340;-6.260;2023-09-19T13:27:44;4.05;;;0.70;;
74753;SDS011;63271;53.340;-6.260;2023-09-19T13:30:13;2.55;;;0.70;;
74753;SDS011;63271;53.340;-6.260;2023-09-19T13:32:39;2.13;;;0.55;;
74753;SDS011;63271;53.340;-6.260;2023-09-19T13:35:08;2.20;;;0.60;;
74753;SDS011;63271;53.340;-6.260;2023-09-19T13:37:38;3.53;;;0.70;;
74753;SDS011;63271;53.340;-6.260;2023-09-19T13:42:36;1.48;;;0.50;;
74753;SDS011;63271;53.340;-6.260;2023-09-19T13:45:05;1.08;;;0.60;;
74753;SDS011;63271;53.340;-6.260;2023-09-19T13:47:36;2.53;;;0.85;;
74753;SDS011;63271;53.340;-6.260;2023-09-19T13:50:03;1.85;;;0.98;;
74753;SDS011;63271;53.340;-6.260;2023-09-19T13:52:35;2.13;;;0.80;;
74753;SDS011;63271;53.340;-6.260;2023-09-19T13:55:03;3.55;;;1.02;;
74753;SDS011;63271;53.340;-6.260;2023-09-19T13:57:30;2.55;;;0.82;;
74753;SDS011;63271;53.340;-6.260;2023-09-19T13:59:58;4.97;;;1.40;;
74753;SDS011;63271;53.340;-6.260;2023-09-19T14:02:28;3.78;;;0.90;;
74753;SDS011;63271;53.340;-6.260;2023-09-19T14:04:54;3.60;;;1.00;;
74753;SDS011;63271;53.340;-6.260;2023-09-19T14:07:22;1.77;;;0.93;;
74753;SDS011;63271;53.340;-6.260;2023-09-19T14:09:48;3.35;;;0.80;;
74753;SDS011;63271;53.340;-6.260;2023-09-19T14:12:13;3.25;;;1.10;;
74753;SDS011;63271;53.340;-6.260;2023-09-19T14:14:41;1.75;;;0.60;;
74753;SDS011;63271;53.340;-6.260;2023-09-19T14:17:12;2.28;;;0.93;;
74753;SDS011;63271;53.340;-6.260;2023-09-19T14:19:40;3.20;;;0.98;;
74753;SDS011;63271;53.340;-6.260;2023-09-19T14:22:07;3.15;;;1.17;;
74753;SDS011;63271;53.340;-6.260;2023-09-19T14:24:35;2.10;;;0.93;;
74753;SDS011;63271;53.340;-6.260;2023-09-19T14:27:03;5.25;;;1.35;;
74753;SDS011;63271;53.340;-6.260;2023-09-19T14:29:31;4.15;;;1.52;;
74753;SDS011;63271;53.340;-6.260;2023-09-19T14:31:59;9.57;;;1.70;;
74753;SDS011;63271;53.340;-6.260;2023-09-19T14:34:25;6.22;;;1.88;;
74753;SDS011;63271;53.340;-6.260;2023-09-19T14:36:53;6.35;;;1.40;;
74753;SDS011;63271;53.340;-6.260;2023-09-19T14:39:22;9.25;;;2.40;;
74753;SDS011;63271;53.340;-6.260;2023-09-19T14:41:48;8.70;;;2.03;;
74753;SDS011;63271;53.340;-6.260;2023-09-19T14:44:14;10.30;;;2.22;;
74753;SDS011;63271;53.340;-6.260;2023-09-19T14:46:41;11.23;;;2.78;;
74753;SDS011;63271;53.340;-6.260;2023-09-19T14:49:08;13.10;;;2.85;;
74753;SDS011;63271;53.340;-6.260;2023-09-19T14:51:35;13.88;;;2.97;;
74753;SDS011;63271;53.340;-6.260;2023-09-19T14:54:00;15.07;;;3.08;;
74753;SDS011;63271;53.340;-6.260;2023-09-19T14:56:28;18.90;;;3.10;;
74753;SDS011;63271;53.340;-6.260;2023-09-19T14:58:55;19.02;;;3.90;;
74753;SDS011;63271;53.340;-6.260;2023-09-19T15:01:20;18.00;;;3.85;;
74753;SDS011;63271;53.340;-6.260;2023-09-19T15:03:47;15.82;;;3.88;;
74753;SDS011;63271;53.340;-6.260;2023-09-19T15:06:14;13.07;;;3.20;;
74753;SDS011;63271;53.340;-6.260;2023-09-19T15:08:40;15.25;;;3.38;;
74753;SDS011;63271;53.340;-6.260;2023-09-19T15:11:10;21.63;;;5.47;;
74753;SDS011;63271;53.340;-6.260;2023-09-19T15:13:37;16.20;;;3.53;;
74753;SDS011;63271;53.340;-6.260;2023-09-19T15:16:05;12.77;;;3.00;;
74753;SDS011;63271;53.340;-6.260;2023-09-19T15:18:39;18.02;;;3.17;;
74753;SDS011;63271;53.340;-6.260;2023-09-19T15:21:10;14.05;;;3.17;;
74753;SDS011;63271;53.340;-6.260;2023-09-19T15:23:39;17.35;;;3.10;;
74753;SDS011;63271;53.340;-6.260;2023-09-19T15:26:13;25.42;;;4.28;;
74753;SDS011;63271;53.340;-6.260;2023-09-19T15:28:45;20.88;;;3.88;;
74753;SDS011;63271;53.340;-6.260;2023-09-19T15:31:13;12.05;;;3.20;;
74753;SDS011;63271;53.340;-6.260;2023-09-19T15:33:39;13.88;;;3.38;;
74753;SDS011;63271;53.340;-6.260;2023-09-19T15:36:12;17.85;;;3.85;;
74753;SDS011;63271;53.340;-6.260;2023-09-19T15:41:24;20.50;;;3.80;;
74753;SDS011;63271;53.340;-6.260;2023-09-19T15:43:53;13.88;;;3.38;;
74753;SDS011;63271;53.340;-6.260;2023-09-19T15:46:21;17.52;;;3.72;;
74753;SDS011;63271;53.340;-6.260;2023-09-19T15:48:47;18.48;;;3.10;;
74753;SDS011;63271;53.340;-6.260;2023-09-19T15:51:12;13.90;;;3.53;;
74753;SDS011;63271;53.340;-6.260;2023-09-19T15:53:44;12.25;;;3.35;;
74753;SDS011;63271;53.340;-6.260;2023-09-19T15:56:12;10.65;;;2.63;;
74753;SDS011;63271;53.340;-6.260;2023-09-19T15:58:43;14.90;;;3.40;;
74753;SDS011;63271;53.340;-6.260;2023-09-19T16:01:09;12.75;;;3.05;;
74753;SDS011;63271;53.340;-6.260;2023-09-19T16:03:38;12.43;;;2.85;;
74753;SDS011;63271;53.340;-6.260;2023-09-19T16:06:12;11.98;;;2.30;;
74753;SDS011;63271;53.340;-6.260;2023-09-19T16:08:41;10.98;;;2.33;;
74753;SDS011;63271;53.340;-6.260;2023-09-19T16:11:07;8.68;;;3.25;;
74753;SDS011;63271;53.340;-6.260;2023-09-19T16:13:34;8.82;;;2.15;;
74753;SDS011;63271;53.340;-6.260;2023-09-19T16:15:59;8.35;;;1.95;;
74753;SDS011;63271;53.340;-6.260;2023-09-19T16:18:25;8.40;;;1.80;;
74753;SDS011;63271;53.340;-6.260;2023-09-19T16:20:53;18.92;;;2.30;;
74753;SDS011;63271;53.340;-6.260;2023-09-19T16:23:19;9.20;;;2.10;;
74753;SDS011;63271;53.340;-6.260;2023-09-19T16:25:47;9.45;;;2.08;;
74753;SDS011;63271;53.340;-6.260;2023-09-19T16:28:12;13.00;;;2.55;;
74753;SDS011;63271;53.340;-6.260;2023-09-19T16:30:38;7.68;;;2.08;;
74753;SDS011;63271;53.340;-6.260;2023-09-19T16:33:08;10.45;;;2.75;;
74753;SDS011;63271;53.340;-6.260;2023-09-19T16:35:36;9.20;;;3.53;;
74753;SDS011;63271;53.340;-6.260;2023-09-19T16:38:04;8.95;;;2.22;;
74753;SDS011;63271;53.340;-6.260;2023-09-19T16:40:30;9.23;;;2.33;;
74753;SDS011;63271;53.340;-6.260;2023-09-19T16:43:00;12.13;;;2.17;;
74753;SDS011;63271;53.340;-6.260;2023-09-19T16:45:30;9.95;;;2.70;;
74753;SDS011;63271;53.340;-6.260;2023-09-19T16:47:59;13.13;;;6.18;;
74753;SDS011;63271;53.340;-6.260;2023-09-19T16:50:29;20.67;;;7.82;;
74753;SDS011;63271;53.340;-6.260;2023-09-19T16:53:00;8.38;;;2.30;;
74753;SDS011;63271;53.340;-6.260;2023-09-19T16:55:26;16.13;;;2.90;;
74753;SDS011;63271;53.340;-6.260;2023-09-19T16:57:58;10.10;;;2.00;;
74753;SDS011;63271;53.340;-6.260;2023-09-19T17:00:24;8.40;;;1.73;;
74753;SDS011;63271;53.340;-6.260;2023-09-19T17:02:51;8.40;;;2.10;;
74753;SDS011;63271;53.340;-6.260;2023-09-19T17:05:17;9.88;;;2.28;;
74753;SDS011;63271;53.340;-6.260;2023-09-19T17:07:43;7.72;;;1.83;;
74753;SDS011;63271;53.340;-6.260;2023-09-19T17:10:10;8.32;;;2.08;;
74753;SDS011;63271;53.340;-6.260;2023-09-19T17:12:37;6.68;;;1.60;;
74753;SDS011;63271;53.340;-6.260;2023-09-19T17:15:04;6.88;;;1.90;;
74753;SDS011;63271;53.340;-6.260;2023-09-19T17:17:29;6.93;;;1.98;;
74753;SDS011;63271;53.340;-6.260;2023-09-19T17:19:57;9.50;;;2.10;;
74753;SDS011;63271;53.340;-6.260;2023-09-19T17:22:23;9.05;;;1.75;;
74753;SDS011;63271;53.340;-6.260;2023-09-19T17:24:51;7.00;;;1.70;;
74753;SDS011;63271;53.340;-6.260;2023-09-19T17:27:16;8.63;;;2.92;;
74753;SDS011;63271;53.340;-6.260;2023-09-19T17:29:42;7.70;;;1.33;;
74753;SDS011;63271;53.340;-6.260;2023-09-19T17:32:09;6.65;;;1.40;;
74753;SDS011;63271;53.340;-6.260;2023-09-19T17:34:35;4.85;;;1.58;;
74753;SDS011;63271;53.340;-6.260;2023-09-19T17:37:03;5.28;;;1.30;;
74753;SDS011;63271;53.340;-6.260;2023-09-19T17:39:33;5.82;;;1.35;;
74753;SDS011;63271;53.340;-6.260;2023-09-19T17:42:01;6.88;;;1.52;;
74753;SDS011;63271;53.340;-6.260;2023-09-19T17:44:30;7.07;;;1.20;;
74753;SDS011;63271;53.340;-6.260;2023-09-19T17:47:02;3.70;;;0.85;;
74753;SDS011;63271;53.340;-6.260;2023-09-19T17:49:27;3.95;;;1.02;;
74753;SDS011;63271;53.340;-6.260;2023-09-19T17:51:53;3.40;;;1.40;;
74753;SDS011;63271;53.340;-6.260;2023-09-19T17:54:21;7.80;;;1.27;;
74753;SDS011;63271;53.340;-6.260;2023-09-19T17:56:48;4.53;;;1.05;;
74753;SDS011;63271;53.340;-6.260;2023-09-19T17:59:14;4.10;;;1.33;;
74753;SDS011;63271;53.340;-6.260;2023-09-19T18:01:42;6.35;;;1.10;;
74753;SDS011;63271;53.340;-6.260;2023-09-19T18:04:08;6.03;;;1.45;;
74753;SDS011;63271;53.340;-6.260;2023-09-19T18:06:35;6.88;;;1.15;;
74753;SDS011;63271;53.340;-6.260;2023-09-19T18:09:02;6.43;;;2.03;;
74753;SDS011;63271;53.340;-6.260;2023-09-19T18:11:32;9.85;;;1.80;;
74753;SDS011;63271;53.340;-6.260;2023-09-19T18:13:58;8.43;;;1.67;;
74753;SDS011;63271;53.340;-6.260;2023-09-19T18:16:26;6.60;;;1.40;;
74753;SDS011;63271;53.340;-6.260;2023-09-19T18:19:00;5.88;;;1.17;;
74753;SDS011;63271;53.340;-6.260;2023-09-19T18:21:26;6.68;;;1.38;;
74753;SDS011;63271;53.340;-6.260;2023-09-19T18:23:58;3.95;;;1.58;;
74753;SDS011;63271;53.340;-6.260;2023-09-19T18:26:29;9.25;;;2.00;;
74753;SDS011;63271;53.340;-6.260;2023-09-19T18:28:54;5.38;;;1.63;;
74753;SDS011;63271;53.340;-6.260;2023-09-19T18:31:21;6.85;;;1.70;;
74753;SDS011;63271;53.340;-6.260;2023-09-19T18:33:49;8.35;;;1.42;;
74753;SDS011;63271;53.340;-6.260;2023-09-19T18:36:18;6.60;;;1.42;;
74753;SDS011;63271;53.340;-6.260;2023-09-19T18:38:45;4.22;;;1.20;;
74753;SDS011;63271;53.340;-6.260;2023-09-19T18:41:13;3.28;;;1.23;;
74753;SDS011;63271;53.340;-6.260;2023-09-19T18:43:39;2.35;;;0.93;;
74753;SDS011;63271;53.340;-6.260;2023-09-19T18:46:07;4.55;;;1.63;;
74753;SDS011;63271;53.340;-6.260;2023-09-19T18:48:38;6.63;;;1.63;;
74753;SDS011;63271;53.340;-6.260;2023-09-19T18:51:09;3.67;;;1.10;;
74753;SDS011;63271;53.340;-6.260;2023-09-19T18:53:39;4.60;;;1.45;;
74753;SDS011;63271;53.340;-6.260;2023-09-19T18:56:05;5.88;;;1.73;;
74753;SDS011;63271;53.340;-6.260;2023-09-19T18:58:37;10.98;;;2.70;;
